sensor_id;sensor_type;location;lat;lon;timestamp;pressure;altitude;pressure_sealevel;temperature;humidity
53340;BME280;46212;50.258;19.062;2022-08-05T00:01:15;98501.47;;;17.92;73.50
53340;BME280;46212;50.258;19.062;2022-08-05T00:03:41;98498.19;;;17.88;73.21
53340;BME280;46212;50.258;19.062;2022-08-05T00:06:06;98494.63;;;17.98;72.72
53340;BME280;46212;50.258;19.062;2022-08-05T00:08:32;98497.16;;;18.02;72.24
53340;BME280;46212;50.258;19.062;2022-08-05T00:10:59;98503.25;;;17.95;73.28
53340;BME280;46212;50.258;19.062;2022-08-05T00:13:25;98484.72;;;17.75;73.65
53340;BME280;46212;50.258;19.062;2022-08-05T00:15:50;98509.34;;;17.82;73.53
53340;BME280;46212;50.258;19.062;2022-08-05T00:18:15;98496.66;;;17.70;73.72
53340;BME280;46212;50.258;19.062;2022-08-05T00:20:41;98482.94;;;17.61;74.47
53340;BME280;46212;50.258;19.062;2022-08-05T00:23:06;98490.00;;;17.51;74.94
53340;BME280;46212;50.258;19.062;2022-08-05T00:25:31;98498.91;;;17.49;75.69
53340;BME280;46212;50.258;19.062;2022-08-05T00:27:57;98485.94;;;17.52;75.93
53340;BME280;46212;50.258;19.062;2022-08-05T00:30:22;98496.09;;;17.49;75.89
53340;BME280;46212;50.258;19.062;2022-08-05T00:32:47;98494.81;;;17.39;76.08
53340;BME280;46212;50.258;19.062;2022-08-05T00:35:14;98478.06;;;17.34;76.38
53340;BME280;46212;50.258;19.062;2022-08-05T00:37:39;98489.22;;;17.34;76.39
53340;BME280;46212;50.258;19.062;2022-08-05T00:40:05;98485.84;;;17.13;76.55
53340;BME280;46212;50.258;19.062;2022-08-05T00:42:31;98480.78;;;17.12;76.52
53340;BME280;46212;50.258;19.062;2022-08-05T00:44:57;98495.53;;;17.23;76.42
53340;BME280;46212;50.258;19.062;2022-08-05T00:47:23;98488.41;;;17.22;75.79
53340;BME280;46212;50.258;19.062;2022-08-05T00:49:48;98488.16;;;17.15;76.03
53340;BME280;46212;50.258;19.062;2022-08-05T00:52:13;98477.50;;;17.19;75.83
53340;BME280;46212;50.258;19.062;2022-08-05T00:54:39;98487.91;;;17.18;76.13
53340;BME280;46212;50.258;19.062;2022-08-05T00:57:04;98477.97;;;17.06;76.99
53340;BME280;46212;50.258;19.062;2022-08-05T00:59:29;98482.56;;;17.09;76.76
53340;BME280;46212;50.258;19.062;2022-08-05T01:01:54;98479.50;;;17.02;77.04
53340;BME280;46212;50.258;19.062;2022-08-05T01:04:20;98473.16;;;17.01;76.65
53340;BME280;46212;50.258;19.062;2022-08-05T01:06:46;98474.38;;;16.94;77.00
53340;BME280;46212;50.258;19.062;2022-08-05T01:09:11;98474.13;;;16.92;77.17
53340;BME280;46212;50.258;19.062;2022-08-05T01:11:38;98466.00;;;16.83;77.86
53340;BME280;46212;50.258;19.062;2022-08-05T01:17:00;98470.78;;;16.77;78.32
53340;BME280;46212;50.258;19.062;2022-08-05T01:22:28;98470.81;;;16.83;77.62
53340;BME280;46212;50.258;19.062;2022-08-05T01:25:23;98462.69;;;16.79;78.00
53340;BME280;46212;50.258;19.062;2022-08-05T01:30:47;98459.38;;;16.81;77.68
53340;BME280;46212;50.258;19.062;2022-08-05T01:33:17;98459.34;;;16.75;77.69
53340;BME280;46212;50.258;19.062;2022-08-05T01:35:46;98460.88;;;16.76;77.95
53340;BME280;46212;50.258;19.062;2022-08-05T01:38:14;98450.69;;;16.62;78.43
53340;BME280;46212;50.258;19.062;2022-08-05T01:40:41;98452.50;;;16.71;77.70
53340;BME280;46212;50.258;19.062;2022-08-05T01:43:08;98445.09;;;16.57;78.50
53340;BME280;46212;50.258;19.062;2022-08-05T01:45:34;98442.81;;;16.61;78.50
53340;BME280;46212;50.258;19.062;2022-08-05T01:48:02;98447.41;;;16.69;77.40
53340;BME280;46212;50.258;19.062;2022-08-05T01:50:31;98445.38;;;16.64;78.02
53340;BME280;46212;50.258;19.062;2022-08-05T01:53:02;98449.16;;;16.61;77.73
53340;BME280;46212;50.258;19.062;2022-08-05T01:55:31;98441.28;;;16.60;77.69
53340;BME280;46212;50.258;19.062;2022-08-05T01:57:58;98437.22;;;16.55;77.54
53340;BME280;46212;50.258;19.062;2022-08-05T02:00:24;98456.53;;;16.64;77.61
53340;BME280;46212;50.258;19.062;2022-08-05T02:02:55;98448.16;;;16.64;77.55
53340;BME280;46212;50.258;19.062;2022-08-05T02:05:26;98440.59;;;16.70;76.97
53340;BME280;46212;50.258;19.062;2022-08-05T02:07:53;98442.53;;;16.59;77.65
53340;BME280;46212;50.258;19.062;2022-08-05T02:10:18;98440.81;;;16.61;77.28
53340;BME280;46212;50.258;19.062;2022-08-05T02:12:55;98437.94;;;16.50;77.96
53340;BME280;46212;50.258;19.062;2022-08-05T02:15:27;98434.09;;;16.42;78.75
53340;BME280;46212;50.258;19.062;2022-08-05T02:18:02;98419.84;;;16.29;78.74
53340;BME280;46212;50.258;19.062;2022-08-05T02:20:32;98432.78;;;16.37;78.73
53340;BME280;46212;50.258;19.062;2022-08-05T02:23:03;98425.88;;;16.22;79.13
53340;BME280;46212;50.258;19.062;2022-08-05T02:25:33;98429.19;;;16.20;79.12
53340;BME280;46212;50.258;19.062;2022-08-05T02:28:01;98426.63;;;16.17;79.42
53340;BME280;46212;50.258;19.062;2022-08-05T02:30:34;98429.44;;;16.22;79.72
53340;BME280;46212;50.258;19.062;2022-08-05T02:33:02;98416.22;;;16.17;79.54
53340;BME280;46212;50.258;19.062;2022-08-05T02:35:30;98431.44;;;16.22;79.43
53340;BME280;46212;50.258;19.062;2022-08-05T02:37:58;98424.56;;;16.17;79.27
53340;BME280;46212;50.258;19.062;2022-08-05T02:40:24;98423.31;;;16.18;79.74
53340;BME280;46212;50.258;19.062;2022-08-05T02:42:51;98416.69;;;16.10;79.99
53340;BME280;46212;50.258;19.062;2022-08-05T02:45:18;98412.59;;;16.06;79.83
53340;BME280;46212;50.258;19.062;2022-08-05T02:47:46;98406.47;;;15.96;80.02
53340;BME280;46212;50.258;19.062;2022-08-05T02:50:13;98417.94;;;16.04;80.02
53340;BME280;46212;50.258;19.062;2022-08-05T02:52:40;98410.06;;;16.02;79.93
53340;BME280;46212;50.258;19.062;2022-08-05T02:55:06;98420.75;;;16.09;79.50
53340;BME280;46212;50.258;19.062;2022-08-05T02:57:33;98427.50;;;15.97;80.08
53340;BME280;46212;50.258;19.062;2022-08-05T02:59:59;98431.56;;;16.02;79.81
53340;BME280;46212;50.258;19.062;2022-08-05T03:02:28;98423.22;;;16.02;80.01
53340;BME280;46212;50.258;19.062;2022-08-05T03:04:56;98428.03;;;16.01;79.93
53340;BME280;46212;50.258;19.062;2022-08-05T03:07:24;98420.72;;;16.04;79.84
53340;BME280;46212;50.258;19.062;2022-08-05T03:09:50;98416.91;;;16.01;79.93
53340;BME280;46212;50.258;19.062;2022-08-05T03:12:35;98405.28;;;16.08;79.94
53340;BME280;46212;50.258;19.062;2022-08-05T03:15:02;98417.28;;;16.25;79.56
53340;BME280;46212;50.258;19.062;2022-08-05T03:17:28;98408.56;;;16.07;80.14
53340;BME280;46212;50.258;19.062;2022-08-05T03:19:53;98418.06;;;15.89;81.03
53340;BME280;46212;50.258;19.062;2022-08-05T03:22:19;98417.59;;;15.90;80.86
53340;BME280;46212;50.258;19.062;2022-08-05T03:24:46;98416.63;;;15.99;79.95
53340;BME280;46212;50.258;19.062;2022-08-05T03:27:12;98410.13;;;15.76;80.96
53340;BME280;46212;50.258;19.062;2022-08-05T03:29:38;98419.13;;;15.91;80.91
53340;BME280;46212;50.258;19.062;2022-08-05T03:32:06;98420.59;;;15.87;81.09
53340;BME280;46212;50.258;19.062;2022-08-05T03:34:32;98411.69;;;15.83;81.37
53340;BME280;46212;50.258;19.062;2022-08-05T03:36:58;98408.72;;;15.92;81.20
53340;BME280;46212;50.258;19.062;2022-08-05T03:39:24;98416.06;;;15.95;80.64
53340;BME280;46212;50.258;19.062;2022-08-05T03:41:49;98413.06;;;15.99;80.86
53340;BME280;46212;50.258;19.062;2022-08-05T03:44:14;98418.63;;;15.99;81.07
53340;BME280;46212;50.258;19.062;2022-08-05T03:46:40;98409.03;;;16.00;80.79
53340;BME280;46212;50.258;19.062;2022-08-05T03:49:05;98406.25;;;16.00;80.90
53340;BME280;46212;50.258;19.062;2022-08-05T03:51:37;98406.75;;;15.98;81.29
53340;BME280;46212;50.258;19.062;2022-08-05T03:54:13;98403.47;;;16.05;80.66
53340;BME280;46212;50.258;19.062;2022-08-05T03:56:43;98406.59;;;16.18;80.39
53340;BME280;46212;50.258;19.062;2022-08-05T03:59:42;98416.31;;;16.34;80.22
53340;BME280;46212;50.258;19.062;2022-08-05T04:02:09;98393.78;;;16.37;79.96
53340;BME280;46212;50.258;19.062;2022-08-05T04:04:36;98406.25;;;16.53;79.14
53340;BME280;46212;50.258;19.062;2022-08-05T04:07:02;98418.25;;;16.65;78.72
53340;BME280;46212;50.258;19.062;2022-08-05T04:09:28;98417.00;;;16.71;78.73
53340;BME280;46212;50.258;19.062;2022-08-05T04:11:54;98423.13;;;16.81;78.43
53340;BME280;46212;50.258;19.062;2022-08-05T04:14:20;98408.19;;;16.89;77.59
53340;BME280;46212;50.258;19.062;2022-08-05T04:16:46;98413.53;;;17.04;77.00
53340;BME280;46212;50.258;19.062;2022-08-05T04:19:12;98405.69;;;17.03;76.59
53340;BME280;46212;50.258;19.062;2022-08-05T04:21:38;98414.59;;;17.18;76.36
53340;BME280;46212;50.258;19.062;2022-08-05T04:24:04;98423.72;;;17.24;75.86
53340;BME280;46212;50.258;19.062;2022-08-05T04:26:29;98426.78;;;17.26;75.67
53340;BME280;46212;50.258;19.062;2022-08-05T04:28:55;98425.50;;;17.32;75.93
53340;BME280;46212;50.258;19.062;2022-08-05T04:31:21;98415.63;;;17.31;75.81
53340;BME280;46212;50.258;19.062;2022-08-05T04:33:46;98421.72;;;17.35;76.02
53340;BME280;46212;50.258;19.062;2022-08-05T04:36:12;98415.16;;;17.55;75.29
53340;BME280;46212;50.258;19.062;2022-08-05T04:38:39;98417.66;;;18.03;73.08
53340;BME280;46212;50.258;19.062;2022-08-05T04:41:04;98402.47;;;17.82;73.58
53340;BME280;46212;50.258;19.062;2022-08-05T04:43:29;98404.72;;;17.83;73.99
53340;BME280;46212;50.258;19.062;2022-08-05T04:45:55;98408.28;;;17.84;73.53
53340;BME280;46212;50.258;19.062;2022-08-05T04:48:20;98398.38;;;17.83;73.26
53340;BME280;46212;50.258;19.062;2022-08-05T04:50:47;98401.94;;;17.83;73.75
53340;BME280;46212;50.258;19.062;2022-08-05T04:53:15;98404.72;;;17.89;73.32
53340;BME280;46212;50.258;19.062;2022-08-05T04:55:41;98403.94;;;18.05;72.18
53340;BME280;46212;50.258;19.062;2022-08-05T04:58:08;98405.94;;;18.16;71.96
53340;BME280;46212;50.258;19.062;2022-08-05T05:00:34;98389.41;;;18.23;71.91
53340;BME280;46212;50.258;19.062;2022-08-05T05:03:01;98401.81;;;18.33;71.00
53340;BME280;46212;50.258;19.062;2022-08-05T05:05:27;98402.78;;;18.47;70.77
53340;BME280;46212;50.258;19.062;2022-08-05T05:08:07;98399.22;;;18.52;70.74
53340;BME280;46212;50.258;19.062;2022-08-05T05:10:40;98403.25;;;18.62;70.55
53340;BME280;46212;50.258;19.062;2022-08-05T05:13:08;98397.16;;;18.64;70.75
53340;BME280;46212;50.258;19.062;2022-08-05T05:15:34;98396.09;;;18.72;70.34
53340;BME280;46212;50.258;19.062;2022-08-05T05:18:00;98406.72;;;18.85;70.05
53340;BME280;46212;50.258;19.062;2022-08-05T05:20:25;98398.56;;;18.87;69.31
53340;BME280;46212;50.258;19.062;2022-08-05T05:22:50;98401.31;;;18.98;69.23
53340;BME280;46212;50.258;19.062;2022-08-05T05:25:15;98400.22;;;19.12;68.95
53340;BME280;46212;50.258;19.062;2022-08-05T05:27:41;98403.91;;;19.26;69.24
53340;BME280;46212;50.258;19.062;2022-08-05T05:30:07;98410.50;;;19.28;68.92
53340;BME280;46212;50.258;19.062;2022-08-05T05:32:32;98417.88;;;19.31;69.25
53340;BME280;46212;50.258;19.062;2022-08-05T05:34:57;98407.16;;;19.35;69.23
53340;BME280;46212;50.258;19.062;2022-08-05T05:37:23;98420.13;;;19.38;68.89
53340;BME280;46212;50.258;19.062;2022-08-05T05:39:48;98408.97;;;19.33;68.41
53340;BME280;46212;50.258;19.062;2022-08-05T05:42:14;98417.75;;;19.53;68.06
53340;BME280;46212;50.258;19.062;2022-08-05T05:44:39;98410.19;;;19.43;68.90
53340;BME280;46212;50.258;19.062;2022-08-05T05:47:04;98418.72;;;19.61;67.67
53340;BME280;46212;50.258;19.062;2022-08-05T05:49:30;98401.78;;;19.73;67.75
53340;BME280;46212;50.258;19.062;2022-08-05T05:51:55;98422.09;;;19.84;66.85
53340;BME280;46212;50.258;19.062;2022-08-05T05:54:20;98411.88;;;19.87;67.33
53340;BME280;46212;50.258;19.062;2022-08-05T05:56:46;98405.97;;;19.90;66.85
53340;BME280;46212;50.258;19.062;2022-08-05T05:59:12;98415.78;;;20.02;66.37
53340;BME280;46212;50.258;19.062;2022-08-05T06:01:39;98405.41;;;20.22;65.96
53340;BME280;46212;50.258;19.062;2022-08-05T06:04:06;98417.56;;;20.30;66.17
53340;BME280;46212;50.258;19.062;2022-08-05T06:06:32;98410.47;;;20.29;66.18
53340;BME280;46212;50.258;19.062;2022-08-05T06:08:57;98407.69;;;20.47;65.58
53340;BME280;46212;50.258;19.062;2022-08-05T06:11:22;98403.28;;;20.52;65.42
53340;BME280;46212;50.258;19.062;2022-08-05T06:13:48;98400.44;;;20.57;65.62
53340;BME280;46212;50.258;19.062;2022-08-05T06:16:13;98404.41;;;20.67;65.19
53340;BME280;46212;50.258;19.062;2022-08-05T06:18:39;98407.13;;;20.73;64.89
53340;BME280;46212;50.258;19.062;2022-08-05T06:21:04;98406.53;;;20.80;65.13
53340;BME280;46212;50.258;19.062;2022-08-05T06:23:29;98401.81;;;20.88;65.69
53340;BME280;46212;50.258;19.062;2022-08-05T06:25:56;98405.22;;;21.00;65.04
53340;BME280;46212;50.258;19.062;2022-08-05T06:28:21;98407.34;;;21.12;64.16
53340;BME280;46212;50.258;19.062;2022-08-05T06:30:46;98398.25;;;21.25;64.10
53340;BME280;46212;50.258;19.062;2022-08-05T06:33:12;98404.22;;;21.35;63.58
53340;BME280;46212;50.258;19.062;2022-08-05T06:35:37;98408.47;;;21.41;63.75
53340;BME280;46212;50.258;19.062;2022-08-05T06:38:03;98405.41;;;21.58;64.44
53340;BME280;46212;50.258;19.062;2022-08-05T06:40:28;98405.53;;;21.65;63.47
53340;BME280;46212;50.258;19.062;2022-08-05T06:42:53;98404.78;;;21.65;63.29
53340;BME280;46212;50.258;19.062;2022-08-05T06:45:20;98406.97;;;21.85;62.86
53340;BME280;46212;50.258;19.062;2022-08-05T06:47:46;98408.66;;;21.94;62.63
53340;BME280;46212;50.258;19.062;2022-08-05T06:50:11;98410.06;;;22.00;62.80
53340;BME280;46212;50.258;19.062;2022-08-05T06:52:37;98404.78;;;21.97;62.54
53340;BME280;46212;50.258;19.062;2022-08-05T06:55:02;98411.91;;;22.11;62.00
53340;BME280;46212;50.258;19.062;2022-08-05T06:57:28;98407.38;;;22.21;62.03
53340;BME280;46212;50.258;19.062;2022-08-05T06:59:53;98402.41;;;22.27;61.64
53340;BME280;46212;50.258;19.062;2022-08-05T07:02:19;98405.66;;;22.57;60.80
53340;BME280;46212;50.258;19.062;2022-08-05T07:04:44;98406.94;;;22.56;61.00
53340;BME280;46212;50.258;19.062;2022-08-05T07:07:10;98399.34;;;22.64;60.32
53340;BME280;46212;50.258;19.062;2022-08-05T07:09:35;98407.94;;;22.72;60.96
53340;BME280;46212;50.258;19.062;2022-08-05T07:12:00;98398.53;;;22.69;60.82
53340;BME280;46212;50.258;19.062;2022-08-05T07:14:26;98397.94;;;22.84;59.63
53340;BME280;46212;50.258;19.062;2022-08-05T07:17:10;98396.84;;;22.87;59.80
53340;BME280;46212;50.258;19.062;2022-08-05T07:19:35;98395.44;;;22.94;60.24
53340;BME280;46212;50.258;19.062;2022-08-05T07:22:00;98404.94;;;23.04;59.80
53340;BME280;46212;50.258;19.062;2022-08-05T07:24:26;98406.72;;;23.27;59.66
53340;BME280;46212;50.258;19.062;2022-08-05T07:26:51;98401.28;;;23.29;58.86
53340;BME280;46212;50.258;19.062;2022-08-05T07:29:17;98405.25;;;23.34;58.53
53340;BME280;46212;50.258;19.062;2022-08-05T07:31:42;98389.75;;;23.41;58.08
53340;BME280;46212;50.258;19.062;2022-08-05T07:34:08;98405.94;;;23.61;58.83
53340;BME280;46212;50.258;19.062;2022-08-05T07:36:34;98395.63;;;23.63;59.55
53340;BME280;46212;50.258;19.062;2022-08-05T07:39:00;98394.75;;;23.68;59.34
53340;BME280;46212;50.258;19.062;2022-08-05T07:41:26;98401.94;;;23.77;58.86
53340;BME280;46212;50.258;19.062;2022-08-05T07:43:53;98404.84;;;23.85;58.68
53340;BME280;46212;50.258;19.062;2022-08-05T07:46:18;98390.59;;;23.90;57.94
53340;BME280;46212;50.258;19.062;2022-08-05T07:48:44;98392.97;;;24.07;58.90
53340;BME280;46212;50.258;19.062;2022-08-05T07:51:09;98395.88;;;24.14;58.23
53340;BME280;46212;50.258;19.062;2022-08-05T07:53:34;98401.56;;;24.22;57.34
53340;BME280;46212;50.258;19.062;2022-08-05T07:56:03;98402.59;;;24.32;57.29
53340;BME280;46212;50.258;19.062;2022-08-05T07:58:28;98380.19;;;24.34;57.50
53340;BME280;46212;50.258;19.062;2022-08-05T08:00:54;98398.03;;;24.57;56.80
53340;BME280;46212;50.258;19.062;2022-08-05T08:03:19;98387.50;;;24.65;57.42
53340;BME280;46212;50.258;19.062;2022-08-05T08:05:45;98396.13;;;24.88;54.05
53340;BME280;46212;50.258;19.062;2022-08-05T08:08:11;98400.06;;;24.93;53.87
53340;BME280;46212;50.258;19.062;2022-08-05T08:10:36;98397.28;;;25.00;55.20
53340;BME280;46212;50.258;19.062;2022-08-05T08:13:02;98401.09;;;25.10;55.31
53340;BME280;46212;50.258;19.062;2022-08-05T08:15:28;98395.28;;;25.16;52.38
53340;BME280;46212;50.258;19.062;2022-08-05T08:17:53;98403.78;;;25.31;51.15
53340;BME280;46212;50.258;19.062;2022-08-05T08:20:20;98406.09;;;25.40;50.82
53340;BME280;46212;50.258;19.062;2022-08-05T08:22:51;98397.84;;;25.65;51.02
53340;BME280;46212;50.258;19.062;2022-08-05T08:25:17;98405.00;;;25.66;50.23
53340;BME280;46212;50.258;19.062;2022-08-05T08:27:43;98398.78;;;25.67;50.93
53340;BME280;46212;50.258;19.062;2022-08-05T08:30:09;98388.25;;;25.68;51.49
53340;BME280;46212;50.258;19.062;2022-08-05T08:32:38;98399.94;;;25.79;51.84
53340;BME280;46212;50.258;19.062;2022-08-05T08:35:03;98405.59;;;25.87;51.92
53340;BME280;46212;50.258;19.062;2022-08-05T08:37:29;98410.13;;;25.90;49.89
53340;BME280;46212;50.258;19.062;2022-08-05T08:39:55;98407.09;;;26.11;46.32
53340;BME280;46212;50.258;19.062;2022-08-05T08:42:21;98408.44;;;26.17;47.01
53340;BME280;46212;50.258;19.062;2022-08-05T08:44:46;98408.63;;;26.19;47.47
53340;BME280;46212;50.258;19.062;2022-08-05T08:47:13;98410.88;;;26.28;47.96
53340;BME280;46212;50.258;19.062;2022-08-05T08:49:43;98404.81;;;26.39;47.88
53340;BME280;46212;50.258;19.062;2022-08-05T08:52:16;98398.97;;;26.37;48.49
53340;BME280;46212;50.258;19.062;2022-08-05T08:54:42;98409.72;;;26.47;49.60
53340;BME280;46212;50.258;19.062;2022-08-05T08:57:09;98400.25;;;26.52;49.41
53340;BME280;46212;50.258;19.062;2022-08-05T08:59:35;98407.22;;;26.58;47.83
53340;BME280;46212;50.258;19.062;2022-08-05T09:02:04;98408.31;;;26.70;45.31
53340;BME280;46212;50.258;19.062;2022-08-05T09:04:33;98397.94;;;26.73;42.94
53340;BME280;46212;50.258;19.062;2022-08-05T09:07:02;98410.91;;;26.91;42.45
53340;BME280;46212;50.258;19.062;2022-08-05T09:09:29;98400.66;;;27.03;41.68
53340;BME280;46212;50.258;19.062;2022-08-05T09:11:55;98413.47;;;27.12;42.63
53340;BME280;46212;50.258;19.062;2022-08-05T09:14:20;98402.31;;;27.14;42.21
53340;BME280;46212;50.258;19.062;2022-08-05T09:16:46;98401.34;;;27.19;41.49
53340;BME280;46212;50.258;19.062;2022-08-05T09:19:12;98400.38;;;27.24;41.36
53340;BME280;46212;50.258;19.062;2022-08-05T09:21:37;98389.22;;;27.26;40.52
53340;BME280;46212;50.258;19.062;2022-08-05T09:24:07;98395.94;;;27.46;40.63
53340;BME280;46212;50.258;19.062;2022-08-05T09:26:34;98384.50;;;27.53;41.69
53340;BME280;46212;50.258;19.062;2022-08-05T09:29:01;98386.84;;;27.72;41.84
53340;BME280;46212;50.258;19.062;2022-08-05T09:31:29;98379.84;;;27.73;41.08
53340;BME280;46212;50.258;19.062;2022-08-05T09:36:50;98370.00;;;27.74;40.98
53340;BME280;46212;50.258;19.062;2022-08-05T09:39:19;98378.16;;;27.70;38.11
53340;BME280;46212;50.258;19.062;2022-08-05T09:42:14;98383.53;;;27.83;37.81
53340;BME280;46212;50.258;19.062;2022-08-05T09:44:45;98377.38;;;27.94;37.99
53340;BME280;46212;50.258;19.062;2022-08-05T09:47:13;98371.47;;;28.00;38.33
53340;BME280;46212;50.258;19.062;2022-08-05T09:49:52;98366.84;;;28.12;37.42
53340;BME280;46212;50.258;19.062;2022-08-05T09:52:32;98360.06;;;28.07;38.12
53340;BME280;46212;50.258;19.062;2022-08-05T10:00:15;98355.19;;;28.25;37.26
53340;BME280;46212;50.258;19.062;2022-08-05T10:02:49;98367.09;;;28.23;39.35
53340;BME280;46212;50.258;19.062;2022-08-05T10:05:16;98365.53;;;28.30;39.26
53340;BME280;46212;50.258;19.062;2022-08-05T10:07:54;98363.19;;;28.53;36.89
53340;BME280;46212;50.258;19.062;2022-08-05T10:13:00;98358.00;;;28.59;34.65
53340;BME280;46212;50.258;19.062;2022-08-05T10:15:33;98365.47;;;28.72;37.66
53340;BME280;46212;50.258;19.062;2022-08-05T10:20:44;98361.84;;;28.88;34.95
53340;BME280;46212;50.258;19.062;2022-08-05T10:23:11;98360.41;;;28.97;32.04
53340;BME280;46212;50.258;19.062;2022-08-05T10:25:37;98361.50;;;29.02;32.85
53340;BME280;46212;50.258;19.062;2022-08-05T10:28:02;98355.91;;;29.21;32.90
53340;BME280;46212;50.258;19.062;2022-08-05T10:30:28;98357.53;;;29.14;32.72
53340;BME280;46212;50.258;19.062;2022-08-05T10:32:55;98350.06;;;29.19;32.99
53340;BME280;46212;50.258;19.062;2022-08-05T10:35:22;98344.69;;;29.23;33.67
53340;BME280;46212;50.258;19.062;2022-08-05T10:37:47;98339.84;;;29.33;32.88
53340;BME280;46212;50.258;19.062;2022-08-05T10:43:01;98347.56;;;29.59;34.20
53340;BME280;46212;50.258;19.062;2022-08-05T10:45:32;98343.41;;;29.60;32.04
53340;BME280;46212;50.258;19.062;2022-08-05T10:47:57;98351.97;;;29.70;32.80
53340;BME280;46212;50.258;19.062;2022-08-05T10:50:23;98347.03;;;29.70;30.30
53340;BME280;46212;50.258;19.062;2022-08-05T10:52:49;98338.50;;;29.70;33.05
53340;BME280;46212;50.258;19.062;2022-08-05T10:55:24;98332.25;;;29.45;34.16
53340;BME280;46212;50.258;19.062;2022-08-05T10:58:09;98352.53;;;29.59;29.41
53340;BME280;46212;50.258;19.062;2022-08-05T11:00:35;98341.00;;;29.66;33.62
53340;BME280;46212;50.258;19.062;2022-08-05T11:03:07;98344.34;;;29.82;30.29
53340;BME280;46212;50.258;19.062;2022-08-05T11:05:36;98333.94;;;30.03;32.86
53340;BME280;46212;50.258;19.062;2022-08-05T11:08:04;98337.75;;;30.25;29.24
53340;BME280;46212;50.258;19.062;2022-08-05T11:10:31;98335.03;;;30.37;29.91
53340;BME280;46212;50.258;19.062;2022-08-05T11:12:58;98337.28;;;30.38;30.55
53340;BME280;46212;50.258;19.062;2022-08-05T11:18:06;98332.66;;;30.62;30.47
53340;BME280;46212;50.258;19.062;2022-08-05T11:20:46;98317.50;;;30.69;30.88
53340;BME280;46212;50.258;19.062;2022-08-05T11:26:19;98333.84;;;30.97;31.12
53340;BME280;46212;50.258;19.062;2022-08-05T11:28:50;98332.72;;;31.22;30.57
53340;BME280;46212;50.258;19.062;2022-08-05T11:36:14;98330.00;;;31.74;29.61
53340;BME280;46212;50.258;19.062;2022-08-05T11:41:07;98331.63;;;31.77;30.98
53340;BME280;46212;50.258;19.062;2022-08-05T11:43:33;98335.81;;;31.45;31.30
53340;BME280;46212;50.258;19.062;2022-08-05T11:45:59;98337.06;;;31.32;30.09
53340;BME280;46212;50.258;19.062;2022-08-05T11:48:25;98329.91;;;31.62;29.37
53340;BME280;46212;50.258;19.062;2022-08-05T11:50:51;98340.56;;;31.92;28.86
53340;BME280;46212;50.258;19.062;2022-08-05T11:53:17;98335.09;;;32.06;30.87
53340;BME280;46212;50.258;19.062;2022-08-05T11:55:57;98339.88;;;31.82;31.23
53340;BME280;46212;50.258;19.062;2022-08-05T11:58:30;98331.69;;;32.40;28.64
53340;BME280;46212;50.258;19.062;2022-08-05T12:01:06;98333.94;;;32.63;29.40
53340;BME280;46212;50.258;19.062;2022-08-05T12:06:12;98337.53;;;32.96;27.44
53340;BME280;46212;50.258;19.062;2022-08-05T12:08:45;98334.88;;;32.89;28.78
53340;BME280;46212;50.258;19.062;2022-08-05T12:11:18;98326.81;;;32.85;30.34
53340;BME280;46212;50.258;19.062;2022-08-05T12:13:53;98325.59;;;33.00;27.36
53340;BME280;46212;50.258;19.062;2022-08-05T12:16:20;98313.84;;;33.17;27.55
53340;BME280;46212;50.258;19.062;2022-08-05T12:18:46;98316.59;;;33.27;27.72
53340;BME280;46212;50.258;19.062;2022-08-05T12:21:13;98321.09;;;33.30;26.48
53340;BME280;46212;50.258;19.062;2022-08-05T12:23:39;98316.22;;;33.44;27.54
53340;BME280;46212;50.258;19.062;2022-08-05T12:26:04;98320.25;;;33.62;27.07
53340;BME280;46212;50.258;19.062;2022-08-05T12:30:56;98319.97;;;34.04;26.48
53340;BME280;46212;50.258;19.062;2022-08-05T12:33:21;98310.09;;;34.19;26.65
53340;BME280;46212;50.258;19.062;2022-08-05T12:35:47;98311.53;;;34.43;26.60
53340;BME280;46212;50.258;19.062;2022-08-05T12:38:12;98304.75;;;34.62;25.37
53340;BME280;46212;50.258;19.062;2022-08-05T12:40:38;98292.25;;;34.69;25.62
53340;BME280;46212;50.258;19.062;2022-08-05T12:43:05;98302.63;;;34.88;26.20
53340;BME280;46212;50.258;19.062;2022-08-05T12:45:31;98299.06;;;35.01;25.12
53340;BME280;46212;50.258;19.062;2022-08-05T12:47:56;98313.69;;;35.18;24.25
53340;BME280;46212;50.258;19.062;2022-08-05T12:50:22;98301.91;;;35.26;24.88
53340;BME280;46212;50.258;19.062;2022-08-05T12:52:55;98296.31;;;35.42;24.44
53340;BME280;46212;50.258;19.062;2022-08-05T12:55:28;98295.59;;;35.82;23.86
53340;BME280;46212;50.258;19.062;2022-08-05T12:57:56;98298.69;;;36.13;23.88
53340;BME280;46212;50.258;19.062;2022-08-05T13:00:23;98299.25;;;36.39;23.42
53340;BME280;46212;50.258;19.062;2022-08-05T13:02:49;98297.25;;;36.71;22.99
53340;BME280;46212;50.258;19.062;2022-08-05T13:05:15;98292.84;;;37.44;22.45
53340;BME280;46212;50.258;19.062;2022-08-05T13:07:42;98291.47;;;38.10;21.50
53340;BME280;46212;50.258;19.062;2022-08-05T13:10:10;98298.75;;;38.28;20.98
53340;BME280;46212;50.258;19.062;2022-08-05T13:12:43;98295.31;;;39.38;20.04
53340;BME280;46212;50.258;19.062;2022-08-05T13:15:11;98300.41;;;41.76;19.18
53340;BME280;46212;50.258;19.062;2022-08-05T13:17:37;98286.25;;;44.87;16.47
53340;BME280;46212;50.258;19.062;2022-08-05T13:20:08;98289.19;;;46.65;14.68
53340;BME280;46212;50.258;19.062;2022-08-05T13:22:38;98280.50;;;48.55;13.18
53340;BME280;46212;50.258;19.062;2022-08-05T13:25:07;98273.84;;;49.11;11.93
53340;BME280;46212;50.258;19.062;2022-08-05T13:27:38;98280.34;;;50.73;10.12
53340;BME280;46212;50.258;19.062;2022-08-05T13:30:11;98277.75;;;51.75;9.39
53340;BME280;46212;50.258;19.062;2022-08-05T13:32:37;98286.28;;;52.89;9.50
53340;BME280;46212;50.258;19.062;2022-08-05T13:35:03;98281.88;;;53.99;8.68